createdAt,value
2018-07-30T05:05:46.323Z,23.44
2018-07-30T05:10:49.646Z,23.47
2018-07-30T05:15:52.979Z,23.58
2018-07-30T05:20:56.314Z,23.67
2018-07-30T05:26:01.570Z,23.72
2018-07-30T05:31:04.920Z,23.80
2018-07-30T05:42:12.309Z,23.97
2018-07-30T05:47:15.637Z,24.12
2018-07-30T05:52:18.986Z,24.30
2018-07-30T05:57:22.319Z,24.44
2018-07-30T06:02:25.654Z,24.62
2018-07-30T06:07:28.986Z,24.75
2018-07-30T06:12:32.313Z,24.87
2018-07-30T06:17:35.653Z,24.95
2018-07-30T06:22:39.758Z,25.07
2018-07-30T06:27:43.106Z,25.11
2018-07-30T06:32:46.444Z,25.26
2018-07-30T06:37:49.778Z,25.43
2018-07-30T06:42:53.109Z,25.57
2018-07-30T06:47:56.487Z,25.60
2018-07-30T06:52:59.788Z,25.73
2018-07-30T06:58:03.123Z,25.84
2018-07-30T07:03:06.459Z,25.95
2018-07-30T07:08:09.798Z,26.09
2018-07-30T07:13:13.902Z,26.25
2018-07-30T07:18:17.234Z,26.41
2018-07-30T07:23:21.339Z,26.56
2018-07-30T07:28:24.672Z,26.42
2018-07-30T07:33:28.778Z,26.66
2018-07-30T07:38:32.107Z,26.84
2018-07-30T07:43:35.443Z,26.72
2018-07-30T07:48:39.548Z,26.82
2018-07-30T07:53:42.882Z,26.87
2018-07-30T07:58:46.976Z,27.01
2018-07-30T08:03:50.312Z,26.96
2018-07-30T08:08:54.403Z,27.23
2018-07-30T08:13:57.747Z,27.27
2018-07-30T08:19:01.094Z,27.47
2018-07-30T08:24:04.435Z,27.59
2018-07-30T08:29:07.823Z,27.64
2018-07-30T08:34:11.120Z,27.82
2018-07-30T08:39:15.218Z,27.93
2018-07-30T08:44:18.554Z,28.03
2018-07-30T08:49:22.643Z,28.07
2018-07-30T08:54:25.966Z,28.13
2018-07-30T08:59:29.319Z,28.23
2018-07-30T09:04:33.427Z,28.14
2018-07-30T09:09:36.762Z,28.41
2018-07-30T09:14:40.859Z,28.61
2018-07-30T09:19:44.203Z,28.66
2018-07-30T09:24:48.302Z,28.80
2018-07-30T09:29:51.645Z,28.85
2018-07-30T09:34:55.736Z,28.93
2018-07-30T09:39:59.080Z,28.87
2018-07-30T09:45:03.179Z,28.88
2018-07-30T09:50:06.519Z,28.93
2018-07-30T09:55:10.618Z,29.07
2018-07-30T10:00:13.938Z,29.20
2018-07-30T10:05:17.266Z,29.27
2018-07-30T10:10:20.607Z,29.40
2018-07-30T10:15:23.938Z,29.42
2018-07-30T10:20:27.266Z,29.63
2018-07-30T10:25:30.605Z,29.56
2018-07-30T10:30:33.968Z,29.93
2018-07-30T10:35:37.299Z,29.83
2018-07-30T10:40:40.635Z,29.73
2018-07-30T10:45:43.974Z,30.07
2018-07-30T10:50:48.066Z,30.19
2018-07-30T10:55:51.405Z,30.18
2018-07-30T11:00:54.770Z,29.87
2018-07-30T11:06:01.836Z,30.01
2018-07-30T11:11:05.930Z,29.93
2018-07-30T11:16:09.262Z,30.12
2018-07-30T11:21:12.591Z,30.24
2018-07-30T11:26:16.689Z,30.30
2018-07-30T11:31:20.020Z,30.45
2018-07-30T11:36:24.131Z,30.66
2018-07-30T11:41:27.473Z,30.89
2018-07-30T11:46:31.574Z,30.94
2018-07-30T11:51:34.911Z,30.96
2018-07-30T11:56:39.010Z,31.27
2018-07-30T12:01:42.364Z,31.80
2018-07-30T12:06:46.491Z,32.21
2018-07-30T12:11:50.630Z,32.46
2018-07-30T12:16:53.947Z,32.06
2018-07-30T12:21:57.286Z,32.06
2018-07-30T12:27:00.637Z,31.83
2018-07-30T12:32:03.989Z,31.66
2018-07-30T12:37:08.138Z,31.47
2018-07-30T12:42:12.198Z,31.54
2018-07-30T12:47:15.541Z,31.54
2018-07-30T12:52:19.650Z,31.84
2018-07-30T12:57:22.994Z,32.48
2018-07-30T13:02:27.102Z,32.01
2018-07-30T13:07:30.433Z,32.44
2018-07-30T13:12:33.781Z,32.91
2018-07-30T13:17:37.114Z,33.38
2018-07-30T13:22:40.445Z,33.70
2018-07-30T13:27:43.873Z,34.05
2018-07-30T13:32:47.285Z,34.15
2018-07-30T13:37:50.568Z,33.63
2018-07-30T13:42:53.902Z,33.27
2018-07-30T13:47:57.239Z,34.17
2018-07-30T13:53:01.334Z,34.53
2018-07-30T13:58:04.674Z,35.34
2018-07-30T14:03:08.779Z,35.61
2018-07-30T14:08:12.113Z,35.81
2018-07-30T14:13:16.207Z,36.29
2018-07-30T14:18:19.547Z,36.63
2018-07-30T14:23:22.884Z,36.11
2018-07-30T14:28:27.014Z,35.31
2018-07-30T14:33:30.351Z,35.40
2018-07-30T14:38:33.677Z,36.36
2018-07-30T14:43:37.024Z,36.70
2018-07-30T14:48:40.359Z,37.36
2018-07-30T14:53:44.454Z,38.02
2018-07-30T14:58:47.791Z,38.80
2018-07-30T15:03:51.133Z,39.45
2018-07-30T15:08:54.474Z,39.71
2018-07-30T15:13:57.811Z,39.99
2018-07-30T15:19:01.190Z,39.84
2018-07-30T15:24:04.503Z,39.63
2018-07-30T15:29:07.830Z,39.07
2018-07-30T15:34:12.444Z,37.36
2018-07-30T15:39:15.782Z,36.28
2018-07-30T15:44:19.114Z,36.44
2018-07-30T15:49:22.475Z,37.48
2018-07-30T15:54:26.830Z,37.41
2018-07-30T15:59:30.154Z,38.55
2018-07-30T16:04:40.670Z,39.18
2018-07-30T16:09:44.007Z,39.32
2018-07-30T16:14:48.109Z,39.93
2018-07-30T16:19:51.595Z,40.12
2018-07-30T16:24:54.976Z,40.19
2018-07-30T16:29:58.319Z,40.60
2018-07-30T16:35:01.686Z,39.03
2018-07-30T16:40:05.968Z,38.64
2018-07-30T16:45:09.354Z,38.54
2018-07-30T16:50:12.694Z,39.13
2018-07-30T16:55:16.023Z,39.84
2018-07-30T17:00:19.943Z,39.91
2018-07-30T17:05:23.284Z,40.27
2018-07-30T17:10:26.618Z,40.15
2018-07-30T17:15:29.961Z,40.11
2018-07-30T17:20:33.313Z,40.01
2018-07-30T17:25:36.678Z,39.92
2018-07-30T17:30:40.207Z,40.29
2018-07-30T17:35:43.541Z,40.33
2018-07-30T17:40:47.042Z,40.11
2018-07-30T17:45:50.415Z,40.07
2018-07-30T17:50:53.766Z,40.12
2018-07-30T17:55:57.123Z,40.15
2018-07-30T18:01:01.427Z,40.00
2018-07-30T18:06:05.794Z,39.67
2018-07-30T18:11:10.095Z,39.47
2018-07-30T18:16:13.429Z,39.06
2018-07-30T18:21:16.764Z,38.60
2018-07-30T18:26:21.789Z,37.97
2018-07-30T18:31:25.126Z,37.43
2018-07-30T18:36:54.919Z,37.08
2018-07-30T18:41:58.269Z,36.59
2018-07-30T18:47:02.362Z,36.23
2018-07-30T18:52:05.708Z,35.91
2018-07-30T18:57:09.818Z,35.65
2018-07-30T19:02:13.162Z,35.52
2018-07-30T19:07:22.698Z,35.38
2018-07-30T19:12:28.239Z,35.29
2018-07-30T19:17:36.781Z,34.95
2018-07-30T19:22:40.130Z,35.00
2018-07-30T19:27:44.236Z,34.63
2018-07-30T19:32:47.570Z,34.38
2018-07-30T19:37:51.677Z,34.09
2018-07-30T19:42:55.068Z,33.86
2018-07-30T19:47:58.386Z,33.78
2018-07-30T19:53:01.723Z,33.59
2018-07-30T19:58:05.191Z,33.40
2018-07-30T20:03:08.418Z,33.21
2018-07-30T20:08:11.759Z,33.06
2018-07-30T20:13:15.107Z,32.65
2018-07-30T20:18:18.444Z,32.34
2018-07-30T20:23:21.779Z,32.07
2018-07-30T20:28:25.126Z,31.83
2018-07-30T20:33:29.226Z,31.72
2018-07-30T20:38:32.571Z,31.72
2018-07-30T20:43:36.669Z,31.69
2018-07-30T20:48:40.015Z,31.37
2018-07-30T20:53:44.123Z,31.05
2018-07-30T20:58:47.464Z,30.92
2018-07-30T21:03:50.802Z,30.89
2018-07-30T21:08:54.124Z,30.85
2018-07-30T21:13:57.469Z,30.74
2018-07-30T21:19:00.811Z,30.63
2018-07-30T21:24:04.920Z,30.57
2018-07-30T21:29:08.253Z,30.39
2018-07-30T21:34:12.372Z,30.25
2018-07-30T21:39:16.485Z,30.15
2018-07-30T21:44:19.809Z,30.05
2018-07-30T21:49:23.152Z,29.93
2018-07-30T21:54:26.504Z,29.90
2018-07-30T21:59:29.837Z,29.82
2018-07-30T22:04:33.194Z,29.76
2018-07-30T22:09:36.534Z,29.68
2018-07-30T22:14:39.873Z,29.58
2018-07-30T22:19:43.206Z,29.46
2018-07-30T22:24:47.307Z,29.32
2018-07-30T22:29:50.652Z,29.08
